Map

Track Data

SID SEASON NUMBER BASIN SUBBASIN NAME ISO_TIME NATURE LAT LON WMO_WIND WMO_PRES WMO_AGENCY TRACK_TYPE DIST2LAND LANDFALL IFLAG USA_AGENCY USA_ATCF_ID USA_LAT USA_LON USA_RECORD USA_STATUS USA_WIND USA_PRES USA_SSHS USA_R34_NE USA_R34_SE USA_R34_SW USA_R34_NW USA_R50_NE USA_R50_SE USA_R50_SW USA_R50_NW USA_R64_NE USA_R64_SE USA_R64_SW USA_R64_NW USA_POCI USA_ROCI USA_RMW USA_EYE TOKYO_LAT TOKYO_LON TOKYO_GRADE TOKYO_WIND TOKYO_PRES TOKYO_R50_DIR TOKYO_R50_LONG TOKYO_R50_SHORT TOKYO_R30_DIR TOKYO_R30_LONG TOKYO_R30_SHORT TOKYO_LAND CMA_LAT CMA_LON CMA_CAT CMA_WIND CMA_PRES HKO_LAT HKO_LON HKO_CAT HKO_WIND HKO_PRES NEWDELHI_LAT NEWDELHI_LON NEWDELHI_GRADE NEWDELHI_WIND NEWDELHI_PRES NEWDELHI_CI NEWDELHI_DP NEWDELHI_POCI REUNION_LAT REUNION_LON REUNION_TYPE REUNION_WIND REUNION_PRES REUNION_TNUM REUNION_CI REUNION_RMW REUNION_R34_NE REUNION_R34_SE REUNION_R34_SW REUNION_R34_NW REUNION_R50_NE REUNION_R50_SE REUNION_R50_SW REUNION_R50_NW REUNION_R64_NE REUNION_R64_SE REUNION_R64_SW REUNION_R64_NW BOM_LAT BOM_LON BOM_TYPE BOM_WIND BOM_PRES BOM_TNUM BOM_CI BOM_RMW BOM_R34_NE BOM_R34_SE BOM_R34_SW BOM_R34_NW BOM_R50_NE BOM_R50_SE BOM_R50_SW BOM_R50_NW BOM_R64_NE BOM_R64_SE BOM_R64_SW BOM_R64_NW BOM_ROCI BOM_POCI BOM_EYE BOM_POS_METHOD BOM_PRES_METHOD NADI_LAT NADI_LON NADI_CAT NADI_WIND NADI_PRES WELLINGTON_LAT WELLINGTON_LON WELLINGTON_WIND WELLINGTON_PRES DS824_LAT DS824_LON DS824_STAGE DS824_WIND DS824_PRES TD9636_LAT TD9636_LON TD9636_STAGE TD9636_WIND TD9636_PRES TD9635_LAT TD9635_LON TD9635_WIND TD9635_PRES TD9635_ROCI NEUMANN_LAT NEUMANN_LON NEUMANN_CLASS NEUMANN_WIND NEUMANN_PRES MLC_LAT MLC_LON MLC_CLASS MLC_WIND MLC_PRES USA_GUST BOM_GUST BOM_GUST_PER REUNION_GUST REUNION_GUST_PER USA_SEAHGT USA_SEARAD_NE USA_SEARAD_SE USA_SEARAD_SW USA_SEARAD_NW STORM_SPEED STORM_DIR
1889244N13338 1889 18 NA NA NOT_NAMED 1889-08-31 12:00:00 TS 12.5000 -22.5000 main 594 594 _____________O -1 12.5000 -22.5000 TD 25 19 282
1889244N13338 1889 18 NA NA NOT_NAMED 1889-08-31 15:00:00 TS 12.7007 -23.4497 main 675 675 _____________P -1 12.7007 -23.4497 TD 25 19 282
1889244N13338 1889 18 NA NA NOT_NAMED 1889-08-31 18:00:00 TS 12.9000 -24.4000 main 772 772 _____________O -1 12.9000 -24.4000 TD 25 19 282
1889244N13338 1889 18 NA NA NOT_NAMED 1889-08-31 21:00:00 TS 13.0997 -25.3502 main 871 871 _____________P -1 13.0997 -25.3502 TD 27 19 282
1889244N13338 1889 18 NA NA NOT_NAMED 1889-09-01 00:00:00 TS 13.3000 -26.3000 main 962 962 _____________O -1 13.3000 -26.3000 TD 30 19 282
1889244N13338 1889 18 NA NA NOT_NAMED 1889-09-01 03:00:00 TS 13.5072 -27.2575 main 1065 1065 _____________P -1 13.5072 -27.2575 TD 30 19 282
1889244N13338 1889 18 NA NA NOT_NAMED 1889-09-01 06:00:00 TS 13.7000 -28.2000 main 1159 1159 _____________O -1 13.7000 -28.2000 TD 30 18 281
1889244N13338 1889 18 NA NA NOT_NAMED 1889-09-01 09:00:00 TS 13.8572 -29.1227 main 1253 1253 _____________P -1 13.8572 -29.1227 TD 32 18 280
1889244N13338 1889 18 NA NA NOT_NAMED 1889-09-01 12:00:00 TS 14.0000 -30.0000 main 1349 1349 _____________O -1 14.0000 -30.0000 TS 35 17 280
1889244N13338 1889 18 NA NA NOT_NAMED 1889-09-01 15:00:00 TS 14.1497 -30.8226 main 1434 1434 _____________P -1 14.1497 -30.8226 TS 35 16 281
1889244N13338 1889 18 NA NA NOT_NAMED 1889-09-01 18:00:00 TS 14.3000 -31.6000 main 1519 1519 _____________O -1 14.3000 -31.6000 TS 35 15 281
1889244N13338 1889 18 NA NA NOT_NAMED 1889-09-01 21:00:00 TS 14.4496 -32.3501 main 1604 1603 _____________P -1 14.4496 -32.3501 TS 35 15 282
1889244N13338 1889 18 NA NA NOT_NAMED 1889-09-02 00:00:00 TS 14.6000 -33.1000 main 1678 1678 _____________O -1 14.6000 -33.1000 TS 35 15 281
1889244N13338 1889 18 NA NA NOT_NAMED 1889-09-02 03:00:00 TS 14.7499 -33.9001 main 1764 1763 _____________P -1 14.7499 -33.9001 TS 35 16 281
1889244N13338 1889 18 NA NA NOT_NAMED 1889-09-02 06:00:00 TS 14.9000 -34.7000 main 1849 1849 _____________O -1 14.9000 -34.7000 TS 35 15 281
1889244N13338 1889 18 NA NA NOT_NAMED 1889-09-02 09:00:00 TS 15.0421 -35.4502 main 1935 1935 _____________P -1 15.0421 -35.4502 TS 35 15 282
1889244N13338 1889 18 NA NA NOT_NAMED 1889-09-02 12:00:00 TS 15.2000 -36.2000 main 2010 2007 _____________O -1 15.2000 -36.2000 TS 35 15 283
1889244N13338 1889 18 NA NA NOT_NAMED 1889-09-02 15:00:00 TS 15.3923 -36.9926 main 1998 1945 _____________P -1 15.3923 -36.9926 TS 37 16 285
1889244N13338 1889 18 NA NA NOT_NAMED 1889-09-02 18:00:00 TS 15.6000 -37.8000 main 1945 1894 _____________O -1 15.6000 -37.8000 TS 40 16 284
1889244N13338 1889 18 NA NA NOT_NAMED 1889-09-02 21:00:00 TS 15.7922 -38.6003 main 1894 1846 _____________P -1 15.7922 -38.6003 TS 45 16 285
1889244N13338 1889 18 NA NA NOT_NAMED 1889-09-03 00:00:00 TS 16.0000 -39.4000 main 1846 1802 _____________O -1 16.0000 -39.4000 TS 50 16 287
1889244N13338 1889 18 NA NA NOT_NAMED 1889-09-03 03:00:00 TS 16.2497 -40.2000 main 1802 1769 _____________P -1 16.2497 -40.2000 TS 55 16 288
1889244N13338 1889 18 NA NA NOT_NAMED 1889-09-03 06:00:00 TS 16.5000 -41.0000 main 1769 1733 _____________O -1 16.5000 -41.0000 TS 60 16 286
1889244N13338 1889 18 NA NA NOT_NAMED 1889-09-03 09:00:00 TS 16.6997 -41.8004 main 1733 1700 _____________P -1 16.6997 -41.8004 TS 60 16 285
1889244N13338 1889 18 NA NA NOT_NAMED 1889-09-03 12:00:00 TS 16.9000 -42.6000 main 1700 1667 _____________O -1 16.9000 -42.6000 TS 60 16 286
1889244N13338 1889 18 NA NA NOT_NAMED 1889-09-03 15:00:00 TS 17.1497 -43.4000 main 1667 1644 _____________P -1 17.1497 -43.4000 TS 62 16 288
1889244N13338 1889 18 NA NA NOT_NAMED 1889-09-03 18:00:00 TS 17.4000 -44.2000 main 1644 1616 _____________O -1 17.4000 -44.2000 HU 65 16 286
1889244N13338 1889 18 NA NA NOT_NAMED 1889-09-03 21:00:00 TS 17.5997 -45.0004 main 1616 1593 _____________P -1 17.5997 -45.0004 HU 65 16 285
1889244N13338 1889 18 NA NA NOT_NAMED 1889-09-04 00:00:00 TS 17.8000 -45.8000 main 1593 1573 _____________O -1 17.8000 -45.8000 HU 65 16 286
1889244N13338 1889 18 NA NA NOT_NAMED 1889-09-04 03:00:00 TS 18.0422 -46.6001 main 1573 1567 _____________P -1 18.0422 -46.6001 HU 65 16 288
1889244N13338 1889 18 NA NA NOT_NAMED 1889-09-04 06:00:00 TS 18.3000 -47.4000 main 1569 1548 _____________O -1 18.3000 -47.4000 HU 65 16 285
1889244N13338 1889 18 NA NA NOT_NAMED 1889-09-04 09:00:00 TS 18.4674 -48.2237 main 1553 1537 _____________P -1 18.4674 -48.2237 HU 65 16 288
1889244N13338 1889 18 NA NA NOT_NAMED 1889-09-04 12:00:00 TS 18.8000 -49.0000 main 1550 1550 _____________O -1 18.8000 -49.0000 HU 65 17 307
1889244N13338 1889 18 NA NA NOT_NAMED 1889-09-04 15:00:00 TS 19.5246 -49.6797 main 1561 1560 _____________P -1 19.5246 -49.6797 HU 65 20 323
1889244N13338 1889 18 NA NA NOT_NAMED 1889-09-04 18:00:00 TS 20.4000 -50.3000 main 1577 1567 _____________O -1 20.4000 -50.3000 HU 65 20 325
1889244N13338 1889 18 NA NA NOT_NAMED 1889-09-04 21:00:00 TS 21.1871 -50.9005 main 1568 1522 _____________P -1 21.1871 -50.9005 HU 65 19 323
1889244N13338 1889 18 NA NA NOT_NAMED 1889-09-05 00:00:00 TS 21.9000 -51.5000 main 1522 1475 _____________O -1 21.9000 -51.5000 HU 65 17 317
1889244N13338 1889 18 NA NA NOT_NAMED 1889-09-05 03:00:00 TS 22.4124 -52.1517 main 1465 1426 _____________P -1 22.4124 -52.1517 HU 65 16 312
1889244N13338 1889 18 NA NA NOT_NAMED 1889-09-05 06:00:00 TS 23.0000 -52.8000 main 1426 1387 _____________O -1 23.0000 -52.8000 HU 65 21 319
1889244N13338 1889 18 NA NA NOT_NAMED 1889-09-05 09:00:00 TS 23.9627 -53.6054 main 1391 1382 _____________P -1 23.9627 -53.6054 HU 65 23 331
1889244N13338 1889 18 NA NA NOT_NAMED 1889-09-05 12:00:00 TS 25.0000 -54.0000 main 1406 1406 _____________O -1 25.0000 -54.0000 HU 65 19 4
1889244N13338 1889 18 NA NA NOT_NAMED 1889-09-05 15:00:00 TS 25.8307 -53.4555 main 1494 1494 _____________P -1 25.8307 -53.4555 HU 65 21 40
1889244N13338 1889 18 NA NA NOT_NAMED 1889-09-05 18:00:00 TS 26.6000 -52.5000 main 1626 1626 _____________O -1 26.6000 -52.5000 HU 65 22 43
1889244N13338 1889 18 NA NA NOT_NAMED 1889-09-05 21:00:00 TS 27.3985 -51.8075 main 1732 1732 _____________P -1 27.3985 -51.8075 HU 65 21 40
1889244N13338 1889 18 NA NA NOT_NAMED 1889-09-06 00:00:00 TS 28.2000 -51.0000 main 1846 1846 _____________O -1 28.2000 -51.0000 HU 65 23 46
1889244N13338 1889 18 NA NA NOT_NAMED 1889-09-06 03:00:00 TS 28.9931 -49.9019 main 1980 1908 _____________P -1 28.9931 -49.9019 HU 65 26 52
1889244N13338 1889 18 NA NA NOT_NAMED 1889-09-06 06:00:00 TS 29.8000 -48.7000 main 1910 1845 _____________O -1 29.8000 -48.7000 HU 65 26 51
1889244N13338 1889 18 NA NA NOT_NAMED 1889-09-06 09:00:00 TS 30.6425 -47.5397 main 1847 1772 _____________P -1 30.6425 -47.5397 HU 65 25 48
1889244N13338 1889 18 NA NA NOT_NAMED 1889-09-06 12:00:00 TS 31.5000 -46.5000 main 1775 1711 _____________O -1 31.5000 -46.5000 HU 65 23 43
1889244N13338 1889 18 NA NA NOT_NAMED 1889-09-06 15:00:00 TS 32.3559 -45.6949 main 1703 1644 _____________P -1 32.3559 -45.6949 HU 65 21 37
1889244N13338 1889 18 NA NA NOT_NAMED 1889-09-06 18:00:00 TS 33.2000 -45.0000 main 1644 1588 _____________O -1 33.2000 -45.0000 HU 65 21 37
1889244N13338 1889 18 NA NA NOT_NAMED 1889-09-06 21:00:00 TS 34.0076 -44.2120 main 1592 1542 _____________P -1 34.0076 -44.2120 HU 65 20 38
1889244N13338 1889 18 NA NA NOT_NAMED 1889-09-07 00:00:00 TS 34.8000 -43.5000 main 1542 1488 _____________O -1 34.8000 -43.5000 HU 65 19 33
1889244N13338 1889 18 NA NA NOT_NAMED 1889-09-07 03:00:00 TS 35.5992 -42.9604 main 1488 1438 _____________P -1 35.5992 -42.9604 HU 65 18 27
1889244N13338 1889 18 NA NA NOT_NAMED 1889-09-07 06:00:00 TS 36.4000 -42.5000 main 1438 1383 _____________O -1 36.4000 -42.5000 HU 65 19 24
1889244N13338 1889 18 NA NA NOT_NAMED 1889-09-07 09:00:00 TS 37.2972 -42.0010 main 1383 1351 _____________P -1 37.2972 -42.0010 HU 65 18 26
1889244N13338 1889 18 NA NA NOT_NAMED 1889-09-07 12:00:00 TS 38.0000 -41.5000 main 1351 1346 _____________O -1 38.0000 -41.5000 HU 65 12 40
1889244N13338 1889 18 NA NA NOT_NAMED 1889-09-07 15:00:00 TS 38.2547 -40.9980 main 1356 1356 _____________P -1 38.2547 -40.9980 HU 65 8 69
1889244N13338 1889 18 NA NA NOT_NAMED 1889-09-07 18:00:00 TS 38.3000 -40.5000 main 1386 1386 _____________O -1 38.3000 -40.5000 HU 65 8 80
1889244N13338 1889 18 NA NA NOT_NAMED 1889-09-07 21:00:00 TS 38.3998 -39.9996 main 1408 1408 _____________P -1 38.3998 -39.9996 HU 65 8 76
1889244N13338 1889 18 NA NA NOT_NAMED 1889-09-08 00:00:00 TS 38.5000 -39.5000 main 1432 1432 _____________O -1 38.5000 -39.5000 HU 65 8 72
1889244N13338 1889 18 NA NA NOT_NAMED 1889-09-08 03:00:00 TS 38.6498 -39.0001 main 1456 1448 _____________P -1 38.6498 -39.0001 HU 67 8 69
1889244N13338 1889 18 NA NA NOT_NAMED 1889-09-08 06:00:00 TS 38.8000 -38.5000 main 1472 1472 _____________O -1 38.8000 -38.5000 HU 70 8 74
1889244N13338 1889 18 NA NA NOT_NAMED 1889-09-08 09:00:00 TS 38.8537 -38.0650 main 1491 1491 _____________P -1 38.8537 -38.0650 HU 70 8 76
1889244N13338 1889 18 NA NA NOT_NAMED 1889-09-08 12:00:00 TS 39.0000 -37.5000 main 1523 1523 _____________O -1 39.0000 -37.5000 HU 70 12 64
1889244N13338 1889 18 NA NA NOT_NAMED 1889-09-08 15:00:00 TS 39.3905 -36.6259 main 1556 1556 _____________P -1 39.3905 -36.6259 HU 70 17 58
1889244N13338 1889 18 NA NA NOT_NAMED 1889-09-08 18:00:00 TS 39.9000 -35.6000 main 1593 1593 _____________O -1 39.9000 -35.6000 HU 70 19 57
1889244N13338 1889 18 NA NA NOT_NAMED 1889-09-08 21:00:00 TS 40.3995 -34.5995 main 1632 1632 _____________P -1 40.3995 -34.5995 HU 70 18 57
1889244N13338 1889 18 NA NA NOT_NAMED 1889-09-09 00:00:00 TS 40.9000 -33.6000 main 1671 1671 _____________O -1 40.9000 -33.6000 HU 70 18 57
1889244N13338 1889 18 NA NA NOT_NAMED 1889-09-09 03:00:00 TS 41.3488 -32.6477 main 1719 1714 _____________P -1 41.3488 -32.6477 HU 70 17 58
1889244N13338 1889 18 NA NA NOT_NAMED 1889-09-09 06:00:00 TS 41.8000 -31.7000 main 1757 1736 _____________O -1 41.8000 -31.7000 HU 70 18 63
1889244N13338 1889 18 NA NA NOT_NAMED 1889-09-09 09:00:00 TS 42.1594 -30.5511 main 1734 1653 _____________P -1 42.1594 -30.5511 HU 70 18 56
1889244N13338 1889 18 NA NA NOT_NAMED 1889-09-09 12:00:00 TS 42.8000 -29.7000 main 1651 1630 _____________O -1 42.8000 -29.7000 HU 70 20 20
1889244N13338 1889 18 NA NA NOT_NAMED 1889-09-09 15:00:00 TS 44.0638 -29.5866 main 1630 1575 _____________P -1 44.0638 -29.5866 HU 70 28 359
1889244N13338 1889 18 NA NA NOT_NAMED 1889-09-09 18:00:00 TS 45.6000 -29.8000 main 1568 1495 _____________O -1 45.6000 -29.8000 HU 70 29 356
1889244N13338 1889 18 NA NA NOT_NAMED 1889-09-09 21:00:00 TS 47.0000 -29.8503 main 1496 1432 _____________P -1 47.0000 -29.8503 HU 70 28 359
1889244N13338 1889 18 NA NA NOT_NAMED 1889-09-10 00:00:00 TS 48.4000 -29.9000 main 1427 1378 _____________O -1 48.4000 -29.9000 HU 70 28 359
1889244N13338 1889 18 NA NA NOT_NAMED 1889-09-10 03:00:00 TS 49.8000 -29.9571 main 1378 1285 _____________P -1 49.8000 -29.9571 HU 70 28 359
1889244N13338 1889 18 NA NA NOT_NAMED 1889-09-10 06:00:00 TS 51.2000 -30.0000 main 1275 1138 _____________O -1 51.2000 -30.0000 HU 70 29 359
1889244N13338 1889 18 NA NA NOT_NAMED 1889-09-10 09:00:00 TS 52.7346 -30.0580 main 1138 1042 _____________P -1 52.7346 -30.0580 HU 70 28 0
1889244N13338 1889 18 NA NA NOT_NAMED 1889-09-10 12:00:00 ET 54.0000 -30.0000 main 1034 996 _____________O -1 54.0000 -30.0000 EX 70 955 19 6
1889244N13338 1889 18 NA NA NOT_NAMED 1889-09-10 15:00:00 ET 54.6351 -29.6954 main 1001 988 _____________P -1 54.6351 -29.6954 EX 70 11 22
1889244N13338 1889 18 NA NA NOT_NAMED 1889-09-10 18:00:00 ET 55.0000 -29.3000 main 991 971 _____________O -1 55.0000 -29.3000 EX 70 10 25
1889244N13338 1889 18 NA NA NOT_NAMED 1889-09-10 21:00:00 ET 55.4999 -28.9915 main 971 924 _____________P -1 55.4999 -28.9915 EX 67 11 19
1889244N13338 1889 18 NA NA NOT_NAMED 1889-09-11 00:00:00 ET 56.0000 -28.7000 main 924 865 _____________O -1 56.0000 -28.7000 EX 65 11 18
1889244N13338 1889 18 NA NA NOT_NAMED 1889-09-11 03:00:00 ET 56.4999 -28.3992 main 865 807 _____________P -1 56.4999 -28.3992 EX 65 10 18
1889244N13338 1889 18 NA NA NOT_NAMED 1889-09-11 06:00:00 ET 57.0000 -28.1000 main 807 747 _____________O -1 57.0000 -28.1000 EX 65 11 22
1889244N13338 1889 18 NA NA NOT_NAMED 1889-09-11 09:00:00 ET 57.5520 -27.6315 main 734 691 _____________P -1 57.5520 -27.6315 EX 65 10 18
1889244N13338 1889 18 NA NA NOT_NAMED 1889-09-11 12:00:00 ET 58.0000 -27.5000 main 691 676 _____________O -1 58.0000 -27.5000 EX 65 984 7 336
1889244N13338 1889 18 NA NA NOT_NAMED 1889-09-11 15:00:00 ET 58.2114 -28.1831 main 685 682 _____________P -1 58.2114 -28.1831 EX 60 9 289
1889244N13338 1889 18 NA NA NOT_NAMED 1889-09-11 18:00:00 ET 58.3000 -29.2000 main 699 699 _____________O -1 58.3000 -29.2000 EX 55 10 280
1889244N13338 1889 18 NA NA NOT_NAMED 1889-09-11 21:00:00 ET 58.3920 -30.0672 main 715 712 _____________P -1 58.3920 -30.0672 EX 50 9 283
1889244N13338 1889 18 NA NA NOT_NAMED 1889-09-12 00:00:00 ET 58.5000 -30.8000 main 712 _____________O -1 58.5000 -30.8000 EX 45 8 286

About IBTrACS Database

This database is a web-friendly format of International Best Track Archive for Climate Stewardship (IBTrACS), a global best track data archive curated by NOAA dating back to 1842.

Updated: 2021-10-08